Impacts METAR Board INFO
IDs:

KSLC - Salt Lake City Intl, UT, US

Updated at: 0133 UTC 13 Dec 2017
Potential Impact None Slight Moderate High
Time12/13Z 12/14Z 12/15Z 12/16Z 12/17Z 12/18Z 12/19Z 12/20Z 12/21Z 12/22Z 12/23Z 13/00Z 13/01Z
VIS0.25 0.25 0.25 0.25 0.25 0.25 0.5 1.25 1.25 0.25 0.25 0.25 0.25
CIG3 5 2 5 5 6 3 4 5 6 4 4 2
CoverOVCOVCOVXOVCOVCOVCOVCOVCOVCOVCOVCOVCOVC
FltCatLIFRLIFRLIFRLIFRLIFRLIFRLIFRLIFRIFRLIFRLIFRLIFRLIFR
WX-SN BR-SN BRFZFG-SN FZFG-SN BRBRBR-SN BR-SN BRBRBRBRBR
WDir0320000000360203400350
WSpd0 3 0 0 0 0 0 0 3 5 5 4 4
WGst-- -- -- -- -- -- -- -- -- -- -- -- --
Raw hourly METARs
KSLC 121254Z 00000KT 1/4SM R16L/P6000FT -SN BR OVC003 M04/M06 A3059 RMK AO2 SFC VIS 1 SNB46 SLP389 P0000 T10441056 VISNO NW RNWY $
KSLC 121354Z 32003KT 1/4SM R16L/4000VP6000FT -SN BR OVC005 M04/M06 A3059 RMK AO2 SFC VIS 1 SNE04B30 SLP389 P0001 T10441056 VISNO NW RNWY $
KSLC 121505Z 00000KT 1/4SM R16L/1200V1600FT FZFG VV002 M04/M05 A3060 RMK AO2 SFC VIS 1/2 T10441050 VISNO NW RNWY
KSLC 121554Z 00000KT 1/4SM R16L/2400VP6000FT -SN FZFG OVC005 M04/M06 A3061 RMK AO2 SFC VIS 1/2 SNB38 SLP395 P0000 T10441056 VISNO NW RNWY
KSLC 121654Z 00000KT 1/4SM R16L/2800V4500FT -SN BR OVC005 M04/M05 A3061 RMK AO2 SFC VIS 1 SNE02B49 SLP397 P0000 T10391050 VISNO NW RNWY
KSLC 121754Z 00000KT 1/4SM R16L/5500VP6000FT BR OVC006 M04/M06 A3061 RMK AO2 SFC VIS 1 1/4 SNE10 SLP398 P0000 60001 T10441056 11039 21044 50001 VISNO NW RNWY
KSLC 121854Z 00000KT 1/2SM R16L/4000VP6000FT BR OVC003 M04/M05 A3059 RMK AO2 SFC VIS 1 SLP390 T10441050 VISNO NW RNWY
KSLC 121954Z 00000KT 1 1/4SM -SN BR OVC004 M04/M05 A3054 RMK AO2 SFC VIS 2 1/2 SNB54 SLP373 P0000 T10441050 VISNO NW RNWY
KSLC 122054Z 36003KT 1 1/4SM -SN BR OVC005 M03/M04 A3050 RMK AO2 SFC VIS 2 SNE04B51 SLP357 P0000 60000 T10281044 58033 VISNO NW RNWY
KSLC 122154Z 02005KT 1/4SM R16L/P6000FT BR OVC006 M03/M04 A3048 RMK AO2 SFC VIS 1 1/2 SNE15 SLP350 P0000 T10281044 VISNO NW RNWY
KSLC 122254Z 34005KT 1/4SM R16L/P6000FT BR OVC004 M03/M04 A3047 RMK AO2 SFC VIS 1 1/4 SLP347 T10281039 VISNO NW RNWY
KSLC 122354Z VRB04KT 1/4SM BR OVC004 M03/M04 A3046 RMK AO2 SFC VIS 1 1/4 SLP345 60000 T10331039 11028 21044 56012 VISNO NW RNWY $
KSLC 130054Z 35004KT 1/4SM R16L/2000VP6000FT BR OVC002 M03/M04 A3046 RMK AO2 SFC VIS 3/4 SLP343 T10331039 VISNO NW RNWY $